sensor_id;sensor_type;location;lat;lon;timestamp;P1;durP1;ratioP1;P2;durP2;ratioP2
52686;SDS011;38584;49.426;8.396;2023-11-19T00:00:19;6.90;;;2.60;;
52686;SDS011;38584;49.426;8.396;2023-11-19T00:02:45;9.32;;;2.80;;
52686;SDS011;38584;49.426;8.396;2023-11-19T00:05:12;7.10;;;2.60;;
52686;SDS011;38584;49.426;8.396;2023-11-19T00:07:37;6.78;;;2.17;;
52686;SDS011;38584;49.426;8.396;2023-11-19T00:10:13;7.85;;;2.55;;
52686;SDS011;38584;49.426;8.396;2023-11-19T00:12:39;5.72;;;2.28;;
52686;SDS011;38584;49.426;8.396;2023-11-19T00:15:06;5.97;;;2.28;;
52686;SDS011;38584;49.426;8.396;2023-11-19T00:17:39;7.43;;;2.40;;
52686;SDS011;38584;49.426;8.396;2023-11-19T00:20:06;10.48;;;2.63;;
52686;SDS011;38584;49.426;8.396;2023-11-19T00:22:32;9.80;;;2.63;;
52686;SDS011;38584;49.426;8.396;2023-11-19T00:24:57;6.30;;;2.55;;
52686;SDS011;38584;49.426;8.396;2023-11-19T00:27:23;7.68;;;2.80;;
52686;SDS011;38584;49.426;8.396;2023-11-19T00:29:51;5.20;;;2.40;;
52686;SDS011;38584;49.426;8.396;2023-11-19T00:32:17;6.70;;;2.25;;
52686;SDS011;38584;49.426;8.396;2023-11-19T00:34:45;4.97;;;2.15;;
52686;SDS011;38584;49.426;8.396;2023-11-19T00:37:12;8.88;;;2.60;;
52686;SDS011;38584;49.426;8.396;2023-11-19T00:39:46;7.80;;;2.00;;
52686;SDS011;38584;49.426;8.396;2023-11-19T00:42:15;4.30;;;2.08;;
52686;SDS011;38584;49.426;8.396;2023-11-19T00:44:40;4.88;;;2.13;;
52686;SDS011;38584;49.426;8.396;2023-11-19T00:47:09;5.85;;;1.55;;
52686;SDS011;38584;49.426;8.396;2023-11-19T00:49:35;4.15;;;1.63;;
52686;SDS011;38584;49.426;8.396;2023-11-19T00:52:00;2.17;;;1.40;;
52686;SDS011;38584;49.426;8.396;2023-11-19T00:54:27;5.03;;;1.45;;
52686;SDS011;38584;49.426;8.396;2023-11-19T00:56:52;7.32;;;1.80;;
52686;SDS011;38584;49.426;8.396;2023-11-19T00:59:18;3.15;;;1.50;;
52686;SDS011;38584;49.426;8.396;2023-11-19T01:01:43;4.10;;;1.50;;
52686;SDS011;38584;49.426;8.396;2023-11-19T01:04:09;2.30;;;1.27;;
52686;SDS011;38584;49.426;8.396;2023-11-19T01:06:34;3.22;;;1.45;;
52686;SDS011;38584;49.426;8.396;2023-11-19T01:08:59;4.20;;;1.42;;
52686;SDS011;38584;49.426;8.396;2023-11-19T01:11:25;5.82;;;1.25;;
52686;SDS011;38584;49.426;8.396;2023-11-19T01:13:51;3.40;;;1.35;;
52686;SDS011;38584;49.426;8.396;2023-11-19T01:16:17;1.45;;;1.02;;
52686;SDS011;38584;49.426;8.396;2023-11-19T01:18:43;3.67;;;1.30;;
52686;SDS011;38584;49.426;8.396;2023-11-19T01:21:08;3.17;;;1.10;;
52686;SDS011;38584;49.426;8.396;2023-11-19T01:23:34;2.08;;;1.13;;
52686;SDS011;38584;49.426;8.396;2023-11-19T01:26:00;2.28;;;1.20;;
52686;SDS011;38584;49.426;8.396;2023-11-19T01:28:25;4.30;;;1.30;;
52686;SDS011;38584;49.426;8.396;2023-11-19T01:30:50;2.80;;;1.20;;
52686;SDS011;38584;49.426;8.396;2023-11-19T01:33:16;3.03;;;1.20;;
52686;SDS011;38584;49.426;8.396;2023-11-19T01:35:41;2.55;;;1.30;;
52686;SDS011;38584;49.426;8.396;2023-11-19T01:38:10;1.48;;;1.00;;
52686;SDS011;38584;49.426;8.396;2023-11-19T01:40:38;3.78;;;1.08;;
52686;SDS011;38584;49.426;8.396;2023-11-19T01:43:04;2.63;;;1.20;;
52686;SDS011;38584;49.426;8.396;2023-11-19T01:45:30;3.40;;;1.05;;
52686;SDS011;38584;49.426;8.396;2023-11-19T01:47:56;1.42;;;0.90;;
52686;SDS011;38584;49.426;8.396;2023-11-19T01:50:22;0.93;;;0.80;;
52686;SDS011;38584;49.426;8.396;2023-11-19T01:52:48;2.60;;;1.00;;
52686;SDS011;38584;49.426;8.396;2023-11-19T01:55:19;2.33;;;1.00;;
52686;SDS011;38584;49.426;8.396;2023-11-19T01:57:48;1.67;;;1.00;;
52686;SDS011;38584;49.426;8.396;2023-11-19T02:00:20;1.77;;;0.98;;
52686;SDS011;38584;49.426;8.396;2023-11-19T02:02:46;3.65;;;1.10;;
52686;SDS011;38584;49.426;8.396;2023-11-19T02:05:13;2.65;;;1.10;;
52686;SDS011;38584;49.426;8.396;2023-11-19T02:07:38;2.70;;;0.95;;
52686;SDS011;38584;49.426;8.396;2023-11-19T02:10:07;1.70;;;1.20;;
52686;SDS011;38584;49.426;8.396;2023-11-19T02:12:40;2.93;;;1.23;;
52686;SDS011;38584;49.426;8.396;2023-11-19T02:15:09;1.73;;;1.08;;
52686;SDS011;38584;49.426;8.396;2023-11-19T02:17:35;2.03;;;1.00;;
52686;SDS011;38584;49.426;8.396;2023-11-19T02:20:03;2.95;;;1.17;;
52686;SDS011;38584;49.426;8.396;2023-11-19T02:22:31;7.57;;;1.20;;
52686;SDS011;38584;49.426;8.396;2023-11-19T02:24:58;3.38;;;1.00;;
52686;SDS011;38584;49.426;8.396;2023-11-19T02:27:40;1.25;;;1.02;;
52686;SDS011;38584;49.426;8.396;2023-11-19T02:30:11;1.70;;;0.90;;
52686;SDS011;38584;49.426;8.396;2023-11-19T02:32:40;3.30;;;0.80;;
52686;SDS011;38584;49.426;8.396;2023-11-19T02:35:09;2.28;;;0.80;;
52686;SDS011;38584;49.426;8.396;2023-11-19T02:37:34;1.92;;;1.10;;
52686;SDS011;38584;49.426;8.396;2023-11-19T02:39:59;1.98;;;1.08;;
52686;SDS011;38584;49.426;8.396;2023-11-19T02:42:29;2.80;;;1.25;;
52686;SDS011;38584;49.426;8.396;2023-11-19T02:44:54;3.63;;;1.33;;
52686;SDS011;38584;49.426;8.396;2023-11-19T02:47:22;1.88;;;1.08;;
52686;SDS011;38584;49.426;8.396;2023-11-19T02:49:49;3.47;;;1.10;;
52686;SDS011;38584;49.426;8.396;2023-11-19T02:52:14;2.33;;;1.20;;
52686;SDS011;38584;49.426;8.396;2023-11-19T02:54:43;3.17;;;1.33;;
52686;SDS011;38584;49.426;8.396;2023-11-19T02:57:08;2.78;;;1.30;;
52686;SDS011;38584;49.426;8.396;2023-11-19T02:59:38;2.40;;;1.30;;
52686;SDS011;38584;49.426;8.396;2023-11-19T03:02:10;2.35;;;1.25;;
52686;SDS011;38584;49.426;8.396;2023-11-19T03:04:43;2.83;;;1.48;;
52686;SDS011;38584;49.426;8.396;2023-11-19T03:07:10;3.10;;;1.40;;
52686;SDS011;38584;49.426;8.396;2023-11-19T03:09:39;1.90;;;1.30;;
52686;SDS011;38584;49.426;8.396;2023-11-19T03:12:05;2.28;;;1.30;;
52686;SDS011;38584;49.426;8.396;2023-11-19T03:14:32;2.88;;;1.60;;
52686;SDS011;38584;49.426;8.396;2023-11-19T03:16:59;5.03;;;1.70;;
52686;SDS011;38584;49.426;8.396;2023-11-19T03:19:24;2.45;;;1.50;;
52686;SDS011;38584;49.426;8.396;2023-11-19T03:21:49;3.33;;;1.40;;
52686;SDS011;38584;49.426;8.396;2023-11-19T03:24:15;4.95;;;1.98;;
52686;SDS011;38584;49.426;8.396;2023-11-19T03:26:40;3.13;;;1.70;;
52686;SDS011;38584;49.426;8.396;2023-11-19T03:29:07;6.05;;;1.67;;
52686;SDS011;38584;49.426;8.396;2023-11-19T03:31:33;4.05;;;1.65;;
52686;SDS011;38584;49.426;8.396;2023-11-19T03:33:58;3.63;;;1.80;;
52686;SDS011;38584;49.426;8.396;2023-11-19T03:36:32;3.97;;;1.92;;
52686;SDS011;38584;49.426;8.396;2023-11-19T03:38:58;3.38;;;1.70;;
52686;SDS011;38584;49.426;8.396;2023-11-19T03:41:27;4.03;;;1.70;;
52686;SDS011;38584;49.426;8.396;2023-11-19T03:43:52;3.65;;;1.83;;
52686;SDS011;38584;49.426;8.396;2023-11-19T03:46:18;3.83;;;1.95;;
52686;SDS011;38584;49.426;8.396;2023-11-19T03:48:44;6.90;;;2.20;;
52686;SDS011;38584;49.426;8.396;2023-11-19T03:51:11;2.80;;;1.70;;
52686;SDS011;38584;49.426;8.396;2023-11-19T03:53:40;3.38;;;1.73;;
52686;SDS011;38584;49.426;8.396;2023-11-19T03:56:06;3.90;;;1.83;;
52686;SDS011;38584;49.426;8.396;2023-11-19T03:58:31;3.90;;;1.80;;
52686;SDS011;38584;49.426;8.396;2023-11-19T04:00:57;5.07;;;2.10;;
52686;SDS011;38584;49.426;8.396;2023-11-19T04:03:25;3.92;;;1.80;;
52686;SDS011;38584;49.426;8.396;2023-11-19T04:05:50;3.00;;;1.60;;
52686;SDS011;38584;49.426;8.396;2023-11-19T04:08:15;2.67;;;1.60;;
52686;SDS011;38584;49.426;8.396;2023-11-19T04:10:41;5.63;;;1.85;;
52686;SDS011;38584;49.426;8.396;2023-11-19T04:13:09;3.63;;;1.50;;
52686;SDS011;38584;49.426;8.396;2023-11-19T04:15:35;4.97;;;2.05;;
52686;SDS011;38584;49.426;8.396;2023-11-19T04:18:00;4.10;;;1.90;;
52686;SDS011;38584;49.426;8.396;2023-11-19T04:20:25;4.38;;;1.80;;
52686;SDS011;38584;49.426;8.396;2023-11-19T04:22:51;7.40;;;1.83;;
52686;SDS011;38584;49.426;8.396;2023-11-19T04:25:25;6.97;;;1.80;;
52686;SDS011;38584;49.426;8.396;2023-11-19T04:27:54;3.75;;;2.00;;
52686;SDS011;38584;49.426;8.396;2023-11-19T04:30:19;4.55;;;1.95;;
52686;SDS011;38584;49.426;8.396;2023-11-19T04:32:44;4.68;;;1.90;;
52686;SDS011;38584;49.426;8.396;2023-11-19T04:35:10;6.32;;;1.98;;
52686;SDS011;38584;49.426;8.396;2023-11-19T04:37:35;4.88;;;1.88;;
52686;SDS011;38584;49.426;8.396;2023-11-19T04:40:01;3.55;;;1.63;;
52686;SDS011;38584;49.426;8.396;2023-11-19T04:42:27;3.30;;;1.77;;
52686;SDS011;38584;49.426;8.396;2023-11-19T04:44:52;3.08;;;1.65;;
52686;SDS011;38584;49.426;8.396;2023-11-19T04:47:20;4.07;;;1.73;;
52686;SDS011;38584;49.426;8.396;2023-11-19T04:49:46;5.30;;;1.77;;
52686;SDS011;38584;49.426;8.396;2023-11-19T04:52:11;4.55;;;1.60;;
52686;SDS011;38584;49.426;8.396;2023-11-19T04:54:43;5.78;;;1.70;;
52686;SDS011;38584;49.426;8.396;2023-11-19T04:57:08;5.30;;;1.90;;
52686;SDS011;38584;49.426;8.396;2023-11-19T04:59:37;4.25;;;1.70;;
52686;SDS011;38584;49.426;8.396;2023-11-19T05:02:02;3.13;;;1.60;;
52686;SDS011;38584;49.426;8.396;2023-11-19T05:04:29;3.95;;;1.70;;
52686;SDS011;38584;49.426;8.396;2023-11-19T05:06:57;5.68;;;2.00;;
52686;SDS011;38584;49.426;8.396;2023-11-19T05:09:22;4.07;;;1.83;;
52686;SDS011;38584;49.426;8.396;2023-11-19T05:11:51;6.28;;;1.90;;
52686;SDS011;38584;49.426;8.396;2023-11-19T05:14:16;5.55;;;2.13;;
52686;SDS011;38584;49.426;8.396;2023-11-19T05:16:50;5.20;;;1.88;;
52686;SDS011;38584;49.426;8.396;2023-11-19T05:19:18;5.55;;;1.70;;
52686;SDS011;38584;49.426;8.396;2023-11-19T05:21:44;7.82;;;2.00;;
52686;SDS011;38584;49.426;8.396;2023-11-19T05:24:12;4.25;;;1.83;;
52686;SDS011;38584;49.426;8.396;2023-11-19T05:26:38;7.43;;;2.00;;
52686;SDS011;38584;49.426;8.396;2023-11-19T05:29:09;4.88;;;1.77;;
52686;SDS011;38584;49.426;8.396;2023-11-19T05:31:34;6.10;;;1.52;;
52686;SDS011;38584;49.426;8.396;2023-11-19T05:34:00;5.90;;;2.10;;
52686;SDS011;38584;49.426;8.396;2023-11-19T05:36:25;4.60;;;2.00;;
52686;SDS011;38584;49.426;8.396;2023-11-19T05:38:50;3.15;;;1.70;;
52686;SDS011;38584;49.426;8.396;2023-11-19T05:41:16;8.38;;;1.90;;
52686;SDS011;38584;49.426;8.396;2023-11-19T05:43:47;3.22;;;1.75;;
52686;SDS011;38584;49.426;8.396;2023-11-19T05:46:12;4.30;;;1.80;;
52686;SDS011;38584;49.426;8.396;2023-11-19T05:48:41;7.43;;;2.00;;
52686;SDS011;38584;49.426;8.396;2023-11-19T05:51:09;6.70;;;1.90;;
52686;SDS011;38584;49.426;8.396;2023-11-19T05:53:35;5.93;;;1.90;;
52686;SDS011;38584;49.426;8.396;2023-11-19T05:56:00;5.00;;;2.08;;
52686;SDS011;38584;49.426;8.396;2023-11-19T05:58:29;5.47;;;1.90;;
52686;SDS011;38584;49.426;8.396;2023-11-19T06:00:55;7.80;;;1.80;;
52686;SDS011;38584;49.426;8.396;2023-11-19T06:03:20;5.55;;;2.00;;
52686;SDS011;38584;49.426;8.396;2023-11-19T06:05:46;8.23;;;2.10;;
52686;SDS011;38584;49.426;8.396;2023-11-19T06:08:12;4.80;;;1.90;;
52686;SDS011;38584;49.426;8.396;2023-11-19T06:10:44;4.60;;;1.90;;
52686;SDS011;38584;49.426;8.396;2023-11-19T06:13:11;7.47;;;1.95;;
52686;SDS011;38584;49.426;8.396;2023-11-19T06:15:37;4.38;;;1.80;;
52686;SDS011;38584;49.426;8.396;2023-11-19T06:18:02;5.00;;;1.73;;
52686;SDS011;38584;49.426;8.396;2023-11-19T06:20:32;5.85;;;2.00;;
52686;SDS011;38584;49.426;8.396;2023-11-19T06:22:57;4.85;;;1.67;;
52686;SDS011;38584;49.426;8.396;2023-11-19T06:25:23;5.47;;;1.95;;
52686;SDS011;38584;49.426;8.396;2023-11-19T06:27:52;6.55;;;1.60;;
52686;SDS011;38584;49.426;8.396;2023-11-19T06:30:17;6.70;;;1.80;;
52686;SDS011;38584;49.426;8.396;2023-11-19T06:32:43;5.70;;;1.77;;
52686;SDS011;38584;49.426;8.396;2023-11-19T06:35:08;7.32;;;2.08;;
52686;SDS011;38584;49.426;8.396;2023-11-19T06:37:34;5.82;;;2.00;;
52686;SDS011;38584;49.426;8.396;2023-11-19T06:40:00;4.78;;;1.85;;
52686;SDS011;38584;49.426;8.396;2023-11-19T06:42:26;8.30;;;1.88;;
52686;SDS011;38584;49.426;8.396;2023-11-19T06:44:51;4.18;;;1.60;;
52686;SDS011;38584;49.426;8.396;2023-11-19T06:47:17;4.28;;;1.65;;
52686;SDS011;38584;49.426;8.396;2023-11-19T06:49:45;6.55;;;1.77;;
52686;SDS011;38584;49.426;8.396;2023-11-19T06:52:11;8.95;;;1.90;;
52686;SDS011;38584;49.426;8.396;2023-11-19T06:54:42;4.00;;;1.80;;
52686;SDS011;38584;49.426;8.396;2023-11-19T06:57:10;5.65;;;1.60;;
52686;SDS011;38584;49.426;8.396;2023-11-19T06:59:36;4.53;;;1.55;;
52686;SDS011;38584;49.426;8.396;2023-11-19T07:02:01;5.57;;;1.58;;
52686;SDS011;38584;49.426;8.396;2023-11-19T07:04:26;7.35;;;1.63;;
52686;SDS011;38584;49.426;8.396;2023-11-19T07:06:51;4.75;;;1.60;;
52686;SDS011;38584;49.426;8.396;2023-11-19T07:09:18;3.10;;;1.40;;
52686;SDS011;38584;49.426;8.396;2023-11-19T07:11:43;3.97;;;1.30;;
52686;SDS011;38584;49.426;8.396;2023-11-19T07:14:14;4.40;;;1.50;;
52686;SDS011;38584;49.426;8.396;2023-11-19T07:16:39;4.15;;;1.20;;
52686;SDS011;38584;49.426;8.396;2023-11-19T07:19:10;3.90;;;1.50;;
52686;SDS011;38584;49.426;8.396;2023-11-19T07:21:42;6.63;;;1.30;;
52686;SDS011;38584;49.426;8.396;2023-11-19T07:24:09;5.32;;;1.50;;
52686;SDS011;38584;49.426;8.396;2023-11-19T07:26:35;6.03;;;1.70;;
52686;SDS011;38584;49.426;8.396;2023-11-19T07:29:02;5.82;;;1.40;;
52686;SDS011;38584;49.426;8.396;2023-11-19T07:31:28;7.78;;;1.50;;
52686;SDS011;38584;49.426;8.396;2023-11-19T07:33:56;7.45;;;1.80;;
52686;SDS011;38584;49.426;8.396;2023-11-19T07:36:24;4.65;;;1.73;;
52686;SDS011;38584;49.426;8.396;2023-11-19T07:38:49;4.40;;;1.65;;
52686;SDS011;38584;49.426;8.396;2023-11-19T07:41:15;5.63;;;1.70;;
52686;SDS011;38584;49.426;8.396;2023-11-19T07:43:43;7.10;;;1.67;;
52686;SDS011;38584;49.426;8.396;2023-11-19T07:46:18;4.63;;;1.50;;
52686;SDS011;38584;49.426;8.396;2023-11-19T07:48:56;5.47;;;1.60;;
52686;SDS011;38584;49.426;8.396;2023-11-19T07:51:28;3.40;;;1.50;;
52686;SDS011;38584;49.426;8.396;2023-11-19T07:53:53;8.73;;;1.50;;
52686;SDS011;38584;49.426;8.396;2023-11-19T07:56:19;5.65;;;1.63;;
52686;SDS011;38584;49.426;8.396;2023-11-19T07:58:44;4.05;;;1.50;;
52686;SDS011;38584;49.426;8.396;2023-11-19T08:01:13;6.55;;;1.70;;
52686;SDS011;38584;49.426;8.396;2023-11-19T08:03:43;10.10;;;2.08;;
52686;SDS011;38584;49.426;8.396;2023-11-19T08:06:09;4.65;;;2.20;;
52686;SDS011;38584;49.426;8.396;2023-11-19T08:08:34;3.63;;;1.52;;
52686;SDS011;38584;49.426;8.396;2023-11-19T08:11:00;3.55;;;1.60;;
52686;SDS011;38584;49.426;8.396;2023-11-19T08:13:25;6.05;;;1.92;;
52686;SDS011;38584;49.426;8.396;2023-11-19T08:15:51;3.53;;;1.70;;
52686;SDS011;38584;49.426;8.396;2023-11-19T08:18:16;7.65;;;1.90;;
52686;SDS011;38584;49.426;8.396;2023-11-19T08:20:46;8.15;;;1.90;;
52686;SDS011;38584;49.426;8.396;2023-11-19T08:23:23;4.38;;;1.60;;
52686;SDS011;38584;49.426;8.396;2023-11-19T08:25:50;6.90;;;1.63;;
52686;SDS011;38584;49.426;8.396;2023-11-19T08:28:15;7.65;;;1.95;;
52686;SDS011;38584;49.426;8.396;2023-11-19T08:30:43;8.75;;;1.67;;
52686;SDS011;38584;49.426;8.396;2023-11-19T08:33:09;5.93;;;1.50;;
52686;SDS011;38584;49.426;8.396;2023-11-19T08:35:34;5.40;;;1.50;;
52686;SDS011;38584;49.426;8.396;2023-11-19T08:38:00;6.78;;;1.40;;
52686;SDS011;38584;49.426;8.396;2023-11-19T08:40:26;4.43;;;1.60;;
52686;SDS011;38584;49.426;8.396;2023-11-19T08:42:54;5.47;;;1.30;;
52686;SDS011;38584;49.426;8.396;2023-11-19T08:45:19;6.38;;;1.70;;
52686;SDS011;38584;49.426;8.396;2023-11-19T08:47:45;8.55;;;1.50;;
52686;SDS011;38584;49.426;8.396;2023-11-19T08:50:10;5.80;;;1.30;;
52686;SDS011;38584;49.426;8.396;2023-11-19T08:52:39;7.13;;;1.55;;
52686;SDS011;38584;49.426;8.396;2023-11-19T08:55:04;6.20;;;1.38;;
52686;SDS011;38584;49.426;8.396;2023-11-19T08:57:30;6.30;;;1.40;;
52686;SDS011;38584;49.426;8.396;2023-11-19T08:59:56;6.55;;;1.42;;
52686;SDS011;38584;49.426;8.396;2023-11-19T09:02:21;5.10;;;1.25;;
52686;SDS011;38584;49.426;8.396;2023-11-19T09:04:46;6.10;;;1.30;;
52686;SDS011;38584;49.426;8.396;2023-11-19T09:07:12;12.77;;;1.95;;
52686;SDS011;38584;49.426;8.396;2023-11-19T09:09:52;8.95;;;1.67;;
52686;SDS011;38584;49.426;8.396;2023-11-19T09:12:24;7.32;;;2.03;;
52686;SDS011;38584;49.426;8.396;2023-11-19T09:14:49;5.72;;;1.60;;
52686;SDS011;38584;49.426;8.396;2023-11-19T09:17:14;10.23;;;1.92;;
52686;SDS011;38584;49.426;8.396;2023-11-19T09:19:43;6.95;;;1.58;;
52686;SDS011;38584;49.426;8.396;2023-11-19T09:22:24;10.90;;;1.70;;
52686;SDS011;38584;49.426;8.396;2023-11-19T09:24:49;7.60;;;1.45;;
52686;SDS011;38584;49.426;8.396;2023-11-19T09:27:18;6.53;;;1.83;;
52686;SDS011;38584;49.426;8.396;2023-11-19T09:29:49;6.68;;;1.70;;
52686;SDS011;38584;49.426;8.396;2023-11-19T09:32:25;6.78;;;1.80;;
52686;SDS011;38584;49.426;8.396;2023-11-19T09:34:50;4.85;;;1.50;;
52686;SDS011;38584;49.426;8.396;2023-11-19T09:37:16;3.35;;;1.30;;
52686;SDS011;38584;49.426;8.396;2023-11-19T09:39:44;7.47;;;1.65;;
52686;SDS011;38584;49.426;8.396;2023-11-19T09:42:13;11.82;;;1.77;;
52686;SDS011;38584;49.426;8.396;2023-11-19T09:44:38;8.75;;;1.65;;
52686;SDS011;38584;49.426;8.396;2023-11-19T09:47:11;5.70;;;1.50;;
52686;SDS011;38584;49.426;8.396;2023-11-19T09:49:37;8.03;;;1.87;;
52686;SDS011;38584;49.426;8.396;2023-11-19T09:52:03;5.75;;;1.48;;
52686;SDS011;38584;49.426;8.396;2023-11-19T09:54:32;9.25;;;1.70;;
52686;SDS011;38584;49.426;8.396;2023-11-19T09:57:03;9.07;;;1.80;;
52686;SDS011;38584;49.426;8.396;2023-11-19T09:59:32;7.57;;;1.90;;
52686;SDS011;38584;49.426;8.396;2023-11-19T10:01:58;6.60;;;1.50;;
52686;SDS011;38584;49.426;8.396;2023-11-19T10:04:24;6.35;;;1.67;;
52686;SDS011;38584;49.426;8.396;2023-11-19T10:06:51;8.77;;;1.77;;
52686;SDS011;38584;49.426;8.396;2023-11-19T10:09:23;7.20;;;1.60;;
52686;SDS011;38584;49.426;8.396;2023-11-19T10:11:54;10.80;;;1.88;;
52686;SDS011;38584;49.426;8.396;2023-11-19T10:14:23;6.03;;;1.50;;
52686;SDS011;38584;49.426;8.396;2023-11-19T10:16:48;9.40;;;1.75;;
52686;SDS011;38584;49.426;8.396;2023-11-19T10:19:19;6.88;;;1.42;;
52686;SDS011;38584;49.426;8.396;2023-11-19T10:21:54;5.00;;;1.45;;
52686;SDS011;38584;49.426;8.396;2023-11-19T10:24:38;7.70;;;1.50;;
52686;SDS011;38584;49.426;8.396;2023-11-19T10:27:08;7.90;;;1.50;;
52686;SDS011;38584;49.426;8.396;2023-11-19T10:29:38;5.65;;;1.50;;
52686;SDS011;38584;49.426;8.396;2023-11-19T10:32:03;6.80;;;2.03;;
52686;SDS011;38584;49.426;8.396;2023-11-19T10:34:35;5.57;;;1.50;;
52686;SDS011;38584;49.426;8.396;2023-11-19T10:37:02;11.13;;;2.05;;
52686;SDS011;38584;49.426;8.396;2023-11-19T10:42:22;5.57;;;1.70;;
52686;SDS011;38584;49.426;8.396;2023-11-19T10:44:53;6.43;;;1.52;;
52686;SDS011;38584;49.426;8.396;2023-11-19T10:47:19;7.57;;;1.58;;
52686;SDS011;38584;49.426;8.396;2023-11-19T10:49:45;7.85;;;2.03;;
52686;SDS011;38584;49.426;8.396;2023-11-19T10:52:11;12.60;;;2.00;;
52686;SDS011;38584;49.426;8.396;2023-11-19T10:54:43;9.23;;;1.42;;
52686;SDS011;38584;49.426;8.396;2023-11-19T10:57:09;7.90;;;1.48;;
52686;SDS011;38584;49.426;8.396;2023-11-19T10:59:36;5.90;;;1.60;;
52686;SDS011;38584;49.426;8.396;2023-11-19T11:02:03;5.95;;;1.63;;
52686;SDS011;38584;49.426;8.396;2023-11-19T11:04:30;4.70;;;1.60;;
52686;SDS011;38584;49.426;8.396;2023-11-19T11:06:58;5.45;;;1.58;;
52686;SDS011;38584;49.426;8.396;2023-11-19T11:09:28;8.15;;;1.90;;
52686;SDS011;38584;49.426;8.396;2023-11-19T11:11:57;9.90;;;2.03;;
52686;SDS011;38584;49.426;8.396;2023-11-19T11:14:27;7.50;;;1.90;;
52686;SDS011;38584;49.426;8.396;2023-11-19T11:16:53;9.23;;;1.60;;
52686;SDS011;38584;49.426;8.396;2023-11-19T11:19:18;15.50;;;1.85;;
52686;SDS011;38584;49.426;8.396;2023-11-19T11:21:45;7.55;;;1.60;;
52686;SDS011;38584;49.426;8.396;2023-11-19T11:24:20;13.50;;;1.88;;
52686;SDS011;38584;49.426;8.396;2023-11-19T11:32:42;6.88;;;1.90;;
52686;SDS011;38584;49.426;8.396;2023-11-19T11:37:49;8.85;;;2.08;;
52686;SDS011;38584;49.426;8.396;2023-11-19T11:40:20;7.85;;;1.73;;
52686;SDS011;38584;49.426;8.396;2023-11-19T11:42:45;7.90;;;1.70;;
52686;SDS011;38584;49.426;8.396;2023-11-19T11:45:11;8.52;;;1.50;;
52686;SDS011;38584;49.426;8.396;2023-11-19T11:55:26;6.78;;;1.50;;
52686;SDS011;38584;49.426;8.396;2023-11-19T11:57:52;6.93;;;1.70;;
52686;SDS011;38584;49.426;8.396;2023-11-19T12:00:22;8.30;;;1.58;;
52686;SDS011;38584;49.426;8.396;2023-11-19T12:02:48;12.63;;;1.98;;
52686;SDS011;38584;49.426;8.396;2023-11-19T12:05:14;8.55;;;1.55;;
52686;SDS011;38584;49.426;8.396;2023-11-19T12:07:44;9.55;;;1.50;;
52686;SDS011;38584;49.426;8.396;2023-11-19T12:10:19;7.60;;;1.38;;
52686;SDS011;38584;49.426;8.396;2023-11-19T12:12:46;7.10;;;1.63;;
52686;SDS011;38584;49.426;8.396;2023-11-19T12:15:12;8.20;;;1.75;;
52686;SDS011;38584;49.426;8.396;2023-11-19T12:17:43;7.45;;;1.38;;
52686;SDS011;38584;49.426;8.396;2023-11-19T12:20:12;10.13;;;2.22;;
52686;SDS011;38584;49.426;8.396;2023-11-19T12:22:41;11.30;;;2.58;;
52686;SDS011;38584;49.426;8.396;2023-11-19T12:25:07;5.88;;;1.50;;
52686;SDS011;38584;49.426;8.396;2023-11-19T12:27:34;4.55;;;1.50;;
52686;SDS011;38584;49.426;8.396;2023-11-19T12:30:04;9.65;;;1.67;;
52686;SDS011;38584;49.426;8.396;2023-11-19T12:35:11;8.15;;;1.85;;
52686;SDS011;38584;49.426;8.396;2023-11-19T12:37:43;10.13;;;2.55;;
52686;SDS011;38584;49.426;8.396;2023-11-19T12:40:16;5.78;;;1.35;;
52686;SDS011;38584;49.426;8.396;2023-11-19T12:42:46;7.22;;;1.45;;
52686;SDS011;38584;49.426;8.396;2023-11-19T12:45:16;8.10;;;1.60;;
52686;SDS011;38584;49.426;8.396;2023-11-19T12:47:45;6.80;;;1.40;;
52686;SDS011;38584;49.426;8.396;2023-11-19T12:50:14;6.47;;;1.52;;
52686;SDS011;38584;49.426;8.396;2023-11-19T12:52:42;8.02;;;1.40;;
52686;SDS011;38584;49.426;8.396;2023-11-19T12:55:27;7.95;;;1.65;;
52686;SDS011;38584;49.426;8.396;2023-11-19T12:57:56;6.97;;;1.67;;
52686;SDS011;38584;49.426;8.396;2023-11-19T13:00:23;5.93;;;1.42;;
52686;SDS011;38584;49.426;8.396;2023-11-19T13:02:58;8.02;;;1.60;;
52686;SDS011;38584;49.426;8.396;2023-11-19T13:13:29;8.52;;;1.85;;
52686;SDS011;38584;49.426;8.396;2023-11-19T13:16:04;9.65;;;1.70;;
52686;SDS011;38584;49.426;8.396;2023-11-19T13:18:34;8.82;;;1.60;;
52686;SDS011;38584;49.426;8.396;2023-11-19T13:20:59;7.40;;;1.60;;
52686;SDS011;38584;49.426;8.396;2023-11-19T13:23:28;8.82;;;1.42;;
52686;SDS011;38584;49.426;8.396;2023-11-19T13:25:53;8.23;;;1.33;;
52686;SDS011;38584;49.426;8.396;2023-11-19T13:28:19;9.38;;;1.65;;
52686;SDS011;38584;49.426;8.396;2023-11-19T13:30:44;9.82;;;1.40;;
52686;SDS011;38584;49.426;8.396;2023-11-19T13:33:09;9.02;;;1.63;;
52686;SDS011;38584;49.426;8.396;2023-11-19T13:35:37;6.68;;;1.90;;
52686;SDS011;38584;49.426;8.396;2023-11-19T13:38:05;5.20;;;1.40;;
52686;SDS011;38584;49.426;8.396;2023-11-19T13:40:32;6.88;;;1.50;;
52686;SDS011;38584;49.426;8.396;2023-11-19T13:42:58;10.07;;;2.03;;
52686;SDS011;38584;49.426;8.396;2023-11-19T13:45:26;10.88;;;2.05;;
52686;SDS011;38584;49.426;8.396;2023-11-19T13:47:51;12.70;;;1.45;;
52686;SDS011;38584;49.426;8.396;2023-11-19T13:50:17;9.35;;;1.60;;
52686;SDS011;38584;49.426;8.396;2023-11-19T13:52:43;4.75;;;1.35;;
52686;SDS011;38584;49.426;8.396;2023-11-19T13:55:10;10.57;;;1.90;;
52686;SDS011;38584;49.426;8.396;2023-11-19T13:57:39;5.63;;;1.50;;
52686;SDS011;38584;49.426;8.396;2023-11-19T14:00:08;6.00;;;1.30;;
52686;SDS011;38584;49.426;8.396;2023-11-19T14:02:38;9.10;;;1.75;;
52686;SDS011;38584;49.426;8.396;2023-11-19T14:05:14;7.10;;;1.17;;
52686;SDS011;38584;49.426;8.396;2023-11-19T14:07:42;8.88;;;1.65;;
52686;SDS011;38584;49.426;8.396;2023-11-19T14:10:08;8.40;;;1.55;;
52686;SDS011;38584;49.426;8.396;2023-11-19T14:12:36;7.63;;;1.70;;
52686;SDS011;38584;49.426;8.396;2023-11-19T14:15:08;10.43;;;1.80;;
52686;SDS011;38584;49.426;8.396;2023-11-19T14:17:34;6.13;;;1.63;;
52686;SDS011;38584;49.426;8.396;2023-11-19T14:20:01;10.27;;;1.75;;
52686;SDS011;38584;49.426;8.396;2023-11-19T14:22:27;8.23;;;1.80;;
52686;SDS011;38584;49.426;8.396;2023-11-19T14:24:53;10.93;;;1.80;;
52686;SDS011;38584;49.426;8.396;2023-11-19T14:27:20;9.63;;;1.95;;
52686;SDS011;38584;49.426;8.396;2023-11-19T14:29:49;10.25;;;1.70;;
52686;SDS011;38584;49.426;8.396;2023-11-19T14:32:16;9.38;;;1.55;;
52686;SDS011;38584;49.426;8.396;2023-11-19T14:34:41;9.52;;;1.80;;
52686;SDS011;38584;49.426;8.396;2023-11-19T14:37:07;9.23;;;1.70;;
52686;SDS011;38584;49.426;8.396;2023-11-19T14:39:35;8.00;;;1.40;;
52686;SDS011;38584;49.426;8.396;2023-11-19T14:42:02;10.85;;;2.00;;
52686;SDS011;38584;49.426;8.396;2023-11-19T14:44:29;12.32;;;2.10;;
52686;SDS011;38584;49.426;8.396;2023-11-19T14:46:58;9.65;;;2.10;;
52686;SDS011;38584;49.426;8.396;2023-11-19T14:49:23;8.35;;;1.90;;
52686;SDS011;38584;49.426;8.396;2023-11-19T14:51:49;7.47;;;1.55;;
52686;SDS011;38584;49.426;8.396;2023-11-19T14:54:18;7.90;;;1.60;;
52686;SDS011;38584;49.426;8.396;2023-11-19T14:56:43;9.70;;;2.20;;
52686;SDS011;38584;49.426;8.396;2023-11-19T14:59:09;7.38;;;1.80;;
52686;SDS011;38584;49.426;8.396;2023-11-19T15:01:34;9.63;;;2.00;;
52686;SDS011;38584;49.426;8.396;2023-11-19T15:04:05;14.68;;;2.13;;
52686;SDS011;38584;49.426;8.396;2023-11-19T15:06:31;9.02;;;1.70;;
52686;SDS011;38584;49.426;8.396;2023-11-19T15:08:58;7.70;;;1.90;;
52686;SDS011;38584;49.426;8.396;2023-11-19T15:11:23;7.65;;;1.80;;
52686;SDS011;38584;49.426;8.396;2023-11-19T15:13:49;7.45;;;1.65;;
52686;SDS011;38584;49.426;8.396;2023-11-19T15:16:14;12.20;;;2.05;;